Portada
METAR-TAF:

METAR-TAF

Aeropuertos :

Aeropuerto de Yakutsk

Yakutsk, Rusia

latitud: 62-01N, longitud: 129-43E, altitud: 103 m

Observación

El informe se hizo hace 28 minutos, a las 04:00 UTC
Viento calma
Temperatura -6°C
Humedad 100%
Presión 1020 hPa
Visibilidad: 0700 m
niebla engelante

METAR: UEEE 220400Z 00000MPS 0750 0700NE R23L/0750U FZFG VV002 M06/M06 Q1020 R23L/450157 NOSIG RMK QBB060 QFE756

Hora: 13:28 (04:28 UTC)

Pronóstico

El informe se hizo hace 58 minutos, a las 03:30 UTC
Pronóstico válido del 22 a las 03 UTC al 23 a las 09 UTC
Viento 2 kt con dirección variable
Visibilidad: 0800 m
a una altura de 300 ft
niebla engelante
Temporalmente
del 22 a las 03 UTC al 22 a las 24 UTC
Visibilidad: 0300 m
a una altura de 200 ft
niebla engelante

TAF: UEEE 220330Z 2203/2309 VRB01MPS 0800 FZFG VV003 TEMPO 2203/2224 0300 FZFG VV002

Observaciones y pronósticos meteorológicos de más de 4000 aeropuertos (mensajes METAR y TAF).

Los puntos amarillos y rojos representan las estaciones disponibles.

Ponga el ratón en el punto deseado para ver el nombre de la estación.

Haga clic para ver las observaciones y los pronósticos meteorológicos.

Para cambiar el mapa : haga clic en los botones verdes con una cruz de color negro para hacer un zoom, en el botón verde con un guión para alejar o en las flechas verdes para mapas adyacentes.


METAR-TAF: